createdAt,value
2022-10-06T00:02:27.925Z,90.63
2022-10-06T00:05:17.496Z,89.71
2022-10-06T00:08:05.161Z,88.61
2022-10-06T00:10:54.717Z,88.93
2022-10-06T00:13:42.384Z,89.21
2022-10-06T00:16:31.901Z,89.79
2022-10-06T00:19:19.481Z,89.05
2022-10-06T00:22:07.080Z,89.28
2022-10-06T00:24:54.650Z,90.50
2022-10-06T00:27:42.188Z,90.95
2022-10-06T00:30:29.763Z,89.57
2022-10-06T00:33:17.323Z,88.26
2022-10-06T00:36:04.902Z,86.40
2022-10-06T00:38:52.454Z,86.04
2022-10-06T00:41:40.042Z,86.77
2022-10-06T00:44:27.600Z,87.38
2022-10-06T00:47:15.181Z,86.94
2022-10-06T00:50:02.730Z,87.56
2022-10-06T00:52:50.296Z,87.16
2022-10-06T00:55:37.850Z,86.77
2022-10-06T00:58:25.783Z,87.29
2022-10-06T01:01:13.686Z,85.57
2022-10-06T01:04:01.291Z,86.49
2022-10-06T01:06:48.807Z,84.43
2022-10-06T01:09:36.359Z,86.60
2022-10-06T01:12:23.898Z,85.97
2022-10-06T01:15:11.454Z,85.51
2022-10-06T01:17:58.991Z,84.44
2022-10-06T01:20:46.562Z,85.07
2022-10-06T01:23:34.108Z,84.77
2022-10-06T01:26:21.663Z,85.79
2022-10-06T01:29:09.211Z,86.75
2022-10-06T01:31:56.769Z,85.71
2022-10-06T01:34:44.317Z,85.89
2022-10-06T01:37:31.890Z,87.17
2022-10-06T01:40:19.454Z,84.16
2022-10-06T01:43:07.072Z,84.11
2022-10-06T01:45:54.618Z,83.52
2022-10-06T01:48:42.173Z,83.79
2022-10-06T01:51:29.745Z,84.27
2022-10-06T01:54:17.309Z,83.90
2022-10-06T01:57:04.844Z,84.98
2022-10-06T01:59:54.784Z,83.72
2022-10-06T02:02:42.613Z,85.01
2022-10-06T02:05:30.171Z,85.34
2022-10-06T02:08:17.704Z,86.54
2022-10-06T02:11:05.315Z,83.60
2022-10-06T02:13:52.874Z,82.96
2022-10-06T02:16:40.431Z,83.92
2022-10-06T02:19:27.980Z,82.73
2022-10-06T02:22:15.513Z,81.58
2022-10-06T02:25:03.077Z,79.77
2022-10-06T02:27:50.627Z,81.15
2022-10-06T02:30:38.271Z,79.93
2022-10-06T02:33:25.806Z,79.63
2022-10-06T02:36:13.369Z,76.47
2022-10-06T02:39:00.940Z,75.84
2022-10-06T02:41:48.491Z,74.99
2022-10-06T02:44:36.060Z,75.09
2022-10-06T02:47:23.589Z,74.02
2022-10-06T02:50:11.159Z,74.54
2022-10-06T02:52:58.709Z,75.96
2022-10-06T02:55:46.270Z,80.70
2022-10-06T02:58:33.825Z,80.79
2022-10-06T03:01:21.452Z,81.40
2022-10-06T03:04:09.057Z,82.23
2022-10-06T03:06:56.621Z,82.22
2022-10-06T03:09:44.172Z,81.01
2022-10-06T03:12:31.731Z,81.37
2022-10-06T03:15:19.281Z,82.04
2022-10-06T03:18:06.932Z,80.74
2022-10-06T03:20:54.466Z,82.67
2022-10-06T03:23:42.031Z,80.89
2022-10-06T03:26:29.580Z,80.09
2022-10-06T03:29:17.142Z,82.07
2022-10-06T03:32:04.708Z,82.23
2022-10-06T03:34:52.275Z,82.68
2022-10-06T03:37:39.958Z,80.96
2022-10-06T03:40:27.497Z,81.36
2022-10-06T03:43:15.064Z,82.08
2022-10-06T03:46:02.601Z,84.07
2022-10-06T03:48:50.155Z,80.32
2022-10-06T03:51:37.691Z,79.28
2022-10-06T03:54:25.258Z,76.35
2022-10-06T03:57:12.817Z,77.69
2022-10-06T04:00:00.389Z,80.24
2022-10-06T04:02:47.946Z,77.23
2022-10-06T04:05:35.505Z,77.13
2022-10-06T04:08:23.049Z,76.93
2022-10-06T04:11:10.619Z,76.62
2022-10-06T04:13:58.164Z,77.65
2022-10-06T04:16:45.883Z,77.81
2022-10-06T04:19:33.483Z,77.89
2022-10-06T04:22:21.050Z,79.96
2022-10-06T04:25:08.596Z,76.51
2022-10-06T04:27:56.152Z,76.38
2022-10-06T04:30:43.706Z,75.32
2022-10-06T04:33:31.272Z,75.85
2022-10-06T04:36:18.821Z,74.66
2022-10-06T04:39:06.475Z,72.79
2022-10-06T04:41:56.019Z,72.66
2022-10-06T04:44:43.577Z,69.71
2022-10-06T04:47:31.105Z,69.36
2022-10-06T04:50:18.661Z,68.65
2022-10-06T04:53:06.256Z,65.99
2022-10-06T04:55:53.807Z,65.65
2022-10-06T04:58:41.358Z,66.04
2022-10-06T05:01:28.964Z,67.27
2022-10-06T05:04:16.617Z,65.27
2022-10-06T05:07:04.151Z,64.48
2022-10-06T05:09:51.704Z,63.40
2022-10-06T05:12:39.246Z,62.62
2022-10-06T05:15:26.817Z,61.84
2022-10-06T05:18:14.359Z,62.05
2022-10-06T05:21:06.350Z,60.91
2022-10-06T05:23:54.216Z,60.44
2022-10-06T05:26:41.769Z,59.67
2022-10-06T05:29:29.323Z,59.22
2022-10-06T05:32:16.890Z,58.85
2022-10-06T05:35:04.424Z,58.60
2022-10-06T05:37:52.157Z,57.85
2022-10-06T05:40:39.701Z,58.02
2022-10-06T05:43:27.265Z,57.71
2022-10-06T05:46:14.841Z,57.42
2022-10-06T05:49:04.434Z,58.28
2022-10-06T05:51:51.971Z,57.91
2022-10-06T05:54:39.524Z,58.07
2022-10-06T05:57:27.068Z,58.38
2022-10-06T06:00:14.611Z,58.54
2022-10-06T06:03:02.182Z,58.23
2022-10-06T06:05:49.859Z,57.93
2022-10-06T06:08:39.380Z,57.98
2022-10-06T06:11:27.191Z,57.33
2022-10-06T06:14:14.815Z,57.55
2022-10-06T06:17:02.475Z,57.53
2022-10-06T06:19:50.105Z,57.68
2022-10-06T06:22:37.664Z,58.35
2022-10-06T06:25:25.233Z,57.82
2022-10-06T06:28:12.814Z,57.46
2022-10-06T06:31:00.458Z,57.17
2022-10-06T06:33:48.051Z,57.27
2022-10-06T06:36:35.878Z,56.71
2022-10-06T06:39:25.539Z,56.22
2022-10-06T06:42:13.092Z,55.90
2022-10-06T06:45:00.682Z,55.79
2022-10-06T06:47:48.232Z,55.40
2022-10-06T06:50:35.792Z,54.65
2022-10-06T06:53:23.342Z,55.17
2022-10-06T06:56:10.921Z,54.89
2022-10-06T06:58:58.473Z,55.01
2022-10-06T07:01:46.187Z,54.67
2022-10-06T07:04:33.839Z,53.92
2022-10-06T07:07:21.409Z,53.49
2022-10-06T07:10:08.942Z,52.90
2022-10-06T07:12:56.505Z,53.94
2022-10-06T07:15:46.094Z,53.38
2022-10-06T07:18:33.685Z,53.16
2022-10-06T07:21:21.265Z,52.93
2022-10-06T07:24:10.816Z,53.36
2022-10-06T07:26:58.393Z,56.34
2022-10-06T07:29:45.958Z,55.99
2022-10-06T07:32:33.521Z,56.77
2022-10-06T07:35:21.103Z,55.29
2022-10-06T07:38:08.662Z,54.85
2022-10-06T07:41:14.891Z,53.98
2022-10-06T07:44:07.870Z,59.26
2022-10-06T07:46:55.884Z,60.38
2022-10-06T07:49:43.436Z,58.88
2022-10-06T07:52:31.007Z,58.82
2022-10-06T07:55:18.557Z,60.42
2022-10-06T07:58:06.116Z,63.72
2022-10-06T08:00:53.690Z,72.10
2022-10-06T08:03:41.373Z,70.74
2022-10-06T08:06:28.927Z,66.67
2022-10-06T08:09:16.509Z,67.20
2022-10-06T08:12:04.060Z,63.11
2022-10-06T08:14:51.973Z,63.59
2022-10-06T08:17:39.782Z,61.92
2022-10-06T08:20:27.339Z,67.01
2022-10-06T08:23:14.898Z,67.21
2022-10-06T08:26:02.457Z,64.88
2022-10-06T08:28:50.035Z,65.21
2022-10-06T08:31:37.623Z,67.48
2022-10-06T08:34:25.196Z,66.55
2022-10-06T08:37:20.233Z,67.90
2022-10-06T08:40:08.093Z,66.51
2022-10-06T08:42:55.636Z,65.92
2022-10-06T08:45:43.312Z,67.60
2022-10-06T08:48:30.905Z,72.99
2022-10-06T08:51:18.474Z,70.68
2022-10-06T08:54:06.040Z,69.87
2022-10-06T08:56:53.612Z,69.30
2022-10-06T08:59:41.170Z,65.50
2022-10-06T09:02:28.814Z,67.57
2022-10-06T09:05:16.434Z,67.97
2022-10-06T09:08:03.993Z,70.07
2022-10-06T09:10:51.537Z,71.21
2022-10-06T09:13:39.092Z,72.06
2022-10-06T09:16:26.685Z,71.21
2022-10-06T09:19:14.281Z,70.57
2022-10-06T09:22:01.838Z,70.13
2022-10-06T09:24:49.405Z,76.00
2022-10-06T09:27:36.948Z,75.65
2022-10-06T09:30:24.527Z,74.65
2022-10-06T09:33:12.089Z,74.54
2022-10-06T09:35:59.765Z,74.83
2022-10-06T09:38:47.315Z,72.21
2022-10-06T09:41:34.915Z,71.73
2022-10-06T09:44:22.607Z,67.67
2022-10-06T09:47:10.195Z,71.08
2022-10-06T09:49:59.738Z,68.16
2022-10-06T09:52:47.327Z,70.37
2022-10-06T09:55:34.847Z,67.61
2022-10-06T09:58:22.407Z,68.26
2022-10-06T10:01:09.975Z,68.94
2022-10-06T10:04:15.945Z,66.59
2022-10-06T10:07:05.072Z,69.67
2022-10-06T10:09:53.897Z,72.81
2022-10-06T10:12:41.695Z,75.06
2022-10-06T10:15:29.249Z,70.06
2022-10-06T10:18:16.842Z,69.44
2022-10-06T10:21:04.398Z,66.60
2022-10-06T10:23:51.974Z,66.56
2022-10-06T10:26:39.524Z,66.15
2022-10-06T10:29:30.521Z,66.29
2022-10-06T10:32:20.023Z,65.50
2022-10-06T10:35:07.580Z,68.26
2022-10-06T10:37:55.146Z,67.11
2022-10-06T10:40:42.803Z,67.96
2022-10-06T10:43:30.353Z,66.86
2022-10-06T10:46:17.982Z,67.13
2022-10-06T10:49:05.557Z,66.78
2022-10-06T10:51:53.114Z,68.12
2022-10-06T10:54:40.673Z,67.93
2022-10-06T10:57:28.215Z,67.55
2022-10-06T11:00:15.781Z,69.09
2022-10-06T11:03:03.325Z,64.11
2022-10-06T11:05:50.902Z,61.58
2022-10-06T11:08:38.464Z,63.11
2022-10-06T11:11:26.037Z,64.81
2022-10-06T11:14:13.584Z,66.64
2022-10-06T11:17:01.152Z,72.06
2022-10-06T11:19:48.700Z,71.98
2022-10-06T11:22:36.282Z,70.19
2022-10-06T11:25:23.852Z,70.55
2022-10-06T11:28:11.447Z,69.19
2022-10-06T11:30:59.028Z,70.78
2022-10-06T11:33:46.600Z,64.48
2022-10-06T11:36:34.140Z,66.97
2022-10-06T11:39:21.708Z,69.59
2022-10-06T11:42:09.271Z,67.77
2022-10-06T11:44:57.100Z,69.10
2022-10-06T11:47:44.869Z,64.71
2022-10-06T11:50:32.430Z,64.16
2022-10-06T11:53:19.986Z,63.04
2022-10-06T11:56:07.633Z,61.65
2022-10-06T11:58:55.172Z,62.16
2022-10-06T12:01:42.784Z,62.67
2022-10-06T12:04:30.365Z,64.10
2022-10-06T12:07:17.936Z,60.81
2022-10-06T12:10:05.482Z,60.31
2022-10-06T12:13:06.155Z,60.95
2022-10-06T12:19:02.409Z,58.77
2022-10-06T12:21:49.972Z,59.29
2022-10-06T12:24:37.522Z,60.36
2022-10-06T12:27:26.052Z,58.10
2022-10-06T12:30:13.912Z,56.50
2022-10-06T12:33:01.487Z,59.14
2022-10-06T12:35:49.036Z,57.06
2022-10-06T12:38:36.605Z,58.86
2022-10-06T12:41:24.174Z,57.38
2022-10-06T12:44:11.749Z,56.76
2022-10-06T12:46:59.306Z,56.03
2022-10-06T12:49:46.948Z,57.01
2022-10-06T12:52:34.480Z,58.28
2022-10-06T12:55:22.035Z,57.02
2022-10-06T12:58:09.587Z,58.42
2022-10-06T13:00:57.186Z,56.44
2022-10-06T13:03:44.774Z,57.47
2022-10-06T13:06:32.332Z,56.89
2022-10-06T13:09:19.860Z,57.65
2022-10-06T13:12:07.541Z,58.05
2022-10-06T13:14:55.091Z,59.02
2022-10-06T13:17:42.690Z,60.57
2022-10-06T13:20:30.243Z,60.05
2022-10-06T13:23:17.792Z,61.01
2022-10-06T13:26:05.342Z,57.97
2022-10-06T13:28:52.894Z,58.72
2022-10-06T13:31:40.438Z,61.72
2022-10-06T13:34:27.975Z,60.78
2022-10-06T13:37:15.628Z,61.84
2022-10-06T13:40:12.312Z,61.73
2022-10-06T13:43:09.137Z,58.08
2022-10-06T13:45:56.713Z,56.45
2022-10-06T13:48:44.289Z,56.92
2022-10-06T13:51:31.874Z,58.68
2022-10-06T13:54:19.400Z,58.24
2022-10-06T13:57:07.080Z,60.71
2022-10-06T13:59:54.639Z,58.20
2022-10-06T14:02:42.405Z,59.69
2022-10-06T14:05:29.996Z,60.12
2022-10-06T14:08:17.554Z,59.79
2022-10-06T14:11:05.130Z,58.34
2022-10-06T14:13:52.722Z,56.16
2022-10-06T14:16:40.267Z,55.62
2022-10-06T14:19:27.844Z,56.91
2022-10-06T14:22:15.396Z,56.72
2022-10-06T14:25:04.946Z,58.93
2022-10-06T14:27:52.496Z,58.22
2022-10-06T14:30:40.100Z,56.13
2022-10-06T14:33:27.700Z,56.77
2022-10-06T14:36:15.232Z,57.61
2022-10-06T14:39:02.794Z,55.08
2022-10-06T14:41:50.328Z,57.68
2022-10-06T14:44:37.885Z,58.04
2022-10-06T14:47:25.449Z,58.27
2022-10-06T14:50:12.999Z,59.74
2022-10-06T14:53:00.535Z,58.88
2022-10-06T14:55:48.093Z,57.65
2022-10-06T14:58:35.650Z,59.14
2022-10-06T15:01:23.214Z,59.66
2022-10-06T15:04:10.777Z,59.88
2022-10-06T15:06:58.348Z,61.04
2022-10-06T15:09:45.894Z,60.75
2022-10-06T15:12:34.183Z,60.96
2022-10-06T15:15:21.779Z,60.82
2022-10-06T15:18:09.331Z,61.80
2022-10-06T15:20:56.873Z,60.71
2022-10-06T15:23:44.527Z,60.69
2022-10-06T15:26:32.087Z,59.64
2022-10-06T15:29:19.633Z,60.91
2022-10-06T15:32:07.284Z,62.63
2022-10-06T15:34:54.910Z,63.35
2022-10-06T15:37:42.482Z,65.33
2022-10-06T15:40:30.023Z,64.31
2022-10-06T15:43:17.601Z,63.19
2022-10-06T15:46:05.239Z,64.26
2022-10-06T15:48:52.919Z,64.41
2022-10-06T15:51:42.451Z,65.11
2022-10-06T15:54:30.030Z,64.09
2022-10-06T15:57:20.889Z,65.06
2022-10-06T16:00:08.934Z,66.40
2022-10-06T16:02:56.519Z,65.52
2022-10-06T16:05:44.156Z,64.99
2022-10-06T16:08:31.690Z,65.55
2022-10-06T16:11:19.296Z,64.39
2022-10-06T16:14:06.834Z,65.26
2022-10-06T16:16:54.392Z,66.10
2022-10-06T16:19:41.919Z,66.91
2022-10-06T16:22:29.484Z,67.08
2022-10-06T16:25:17.027Z,66.61
2022-10-06T16:28:04.758Z,66.93
2022-10-06T16:30:52.553Z,68.14
2022-10-06T16:33:40.117Z,68.27
2022-10-06T16:36:27.671Z,69.54
2022-10-06T16:39:15.229Z,69.30
2022-10-06T16:42:02.777Z,69.60
2022-10-06T16:44:50.354Z,71.20
2022-10-06T16:47:37.950Z,71.58
2022-10-06T16:50:25.518Z,71.46
2022-10-06T16:53:16.841Z,73.23
2022-10-06T16:56:04.586Z,73.29
2022-10-06T16:58:52.128Z,75.01
2022-10-06T17:01:39.724Z,75.46
2022-10-06T17:04:27.332Z,77.22
2022-10-06T17:07:14.941Z,77.95
2022-10-06T17:10:19.562Z,78.31
2022-10-06T17:13:07.919Z,80.55
2022-10-06T17:15:55.520Z,79.88
2022-10-06T17:18:43.089Z,80.38
2022-10-06T17:21:45.541Z,79.32
2022-10-06T17:24:34.074Z,79.76
2022-10-06T17:27:21.650Z,80.33
2022-10-06T17:30:09.219Z,81.26
2022-10-06T17:32:56.743Z,83.61
2022-10-06T17:35:44.311Z,86.17
2022-10-06T17:38:31.862Z,85.02
2022-10-06T17:41:19.579Z,83.69
2022-10-06T17:44:09.104Z,84.48
2022-10-06T17:46:56.688Z,82.01
2022-10-06T17:49:44.271Z,81.86
2022-10-06T17:52:31.822Z,81.89
2022-10-06T17:55:19.383Z,80.88
2022-10-06T17:58:06.967Z,81.49
2022-10-06T18:00:54.593Z,82.56
2022-10-06T18:03:42.160Z,82.69
2022-10-06T18:06:29.725Z,81.01
2022-10-06T18:09:17.280Z,81.26
2022-10-06T18:12:04.846Z,79.86
2022-10-06T18:14:52.417Z,81.48
2022-10-06T18:17:39.971Z,81.50
2022-10-06T18:20:27.530Z,81.59
2022-10-06T18:23:15.074Z,82.40
2022-10-06T18:26:02.680Z,83.05
2022-10-06T18:28:50.231Z,83.01
2022-10-06T18:31:37.828Z,83.86
2022-10-06T18:37:32.922Z,82.64
2022-10-06T18:40:20.474Z,84.67
2022-10-06T18:43:08.080Z,83.96
2022-10-06T18:45:55.672Z,84.52
2022-10-06T18:48:43.299Z,85.18
2022-10-06T18:51:30.932Z,84.95
2022-10-06T18:54:18.790Z,86.13
2022-10-06T18:57:06.370Z,86.53
2022-10-06T18:59:53.944Z,86.64
2022-10-06T19:02:44.926Z,87.90
2022-10-06T19:05:35.747Z,87.55
2022-10-06T19:08:23.350Z,86.74
2022-10-06T19:11:11.140Z,86.17
2022-10-06T19:13:58.708Z,86.16
2022-10-06T19:16:46.383Z,87.46
2022-10-06T19:19:34.187Z,88.84
2022-10-06T19:22:23.783Z,88.65
2022-10-06T19:25:11.462Z,89.25
2022-10-06T19:27:59.172Z,89.80
2022-10-06T19:30:46.863Z,90.19
2022-10-06T19:33:34.463Z,89.22
2022-10-06T19:36:22.075Z,90.75
2022-10-06T19:39:09.641Z,91.74
2022-10-06T19:41:57.243Z,90.84
2022-10-06T19:44:44.868Z,90.16
2022-10-06T19:47:32.542Z,89.75
2022-10-06T19:50:20.117Z,89.73
2022-10-06T19:53:09.669Z,88.95
2022-10-06T19:55:57.249Z,88.99
2022-10-06T19:58:44.821Z,87.63
2022-10-06T20:01:32.423Z,86.88
2022-10-06T20:04:22.136Z,87.08
2022-10-06T20:07:09.730Z,87.95
2022-10-06T20:09:57.310Z,89.24
2022-10-06T20:12:44.849Z,87.20
2022-10-06T20:15:32.510Z,89.65
2022-10-06T20:18:20.047Z,92.59
2022-10-06T20:21:07.673Z,89.82
2022-10-06T20:23:55.221Z,91.26
2022-10-06T20:26:42.788Z,92.11
2022-10-06T20:29:30.316Z,91.71
2022-10-06T20:32:17.991Z,91.01
2022-10-06T20:35:07.541Z,92.33
2022-10-06T20:37:55.154Z,90.77
2022-10-06T20:40:42.772Z,90.87
2022-10-06T20:43:30.324Z,90.30
2022-10-06T20:46:17.917Z,89.66
2022-10-06T20:49:05.563Z,88.64
2022-10-06T20:51:53.109Z,87.10
2022-10-06T20:54:40.657Z,85.19
2022-10-06T20:57:33.532Z,84.75
2022-10-06T21:00:24.587Z,84.98
2022-10-06T21:03:12.301Z,85.51
2022-10-06T21:05:59.874Z,86.96
2022-10-06T21:08:47.424Z,85.33
2022-10-06T21:11:35.024Z,82.85
2022-10-06T21:14:22.550Z,84.60
2022-10-06T21:17:10.075Z,83.99
2022-10-06T21:19:57.720Z,81.36
2022-10-06T21:22:45.246Z,79.67
2022-10-06T21:25:32.917Z,77.47
2022-10-06T21:28:20.567Z,76.95
2022-10-06T21:31:08.206Z,76.00
2022-10-06T21:33:55.853Z,77.59
2022-10-06T21:36:43.541Z,76.02
2022-10-06T21:39:31.123Z,74.06
2022-10-06T21:42:18.709Z,73.03
2022-10-06T21:45:06.233Z,74.92
2022-10-06T21:47:53.964Z,77.71
2022-10-06T21:50:41.527Z,75.92
2022-10-06T21:53:31.099Z,73.75
2022-10-06T21:56:18.635Z,71.28
2022-10-06T21:59:06.196Z,68.91
2022-10-06T22:01:53.820Z,66.83
2022-10-06T22:04:41.438Z,68.85
2022-10-06T22:07:29.018Z,68.79
2022-10-06T22:10:16.567Z,70.32
2022-10-06T22:13:04.083Z,75.14
2022-10-06T22:15:51.696Z,76.09
2022-10-06T22:18:39.274Z,75.79
2022-10-06T22:21:26.924Z,81.13
2022-10-06T22:24:16.438Z,82.37
2022-10-06T22:27:03.975Z,85.89
2022-10-06T22:29:51.497Z,89.03
2022-10-06T22:32:39.034Z,92.93
2022-10-06T22:35:26.551Z,91.39
2022-10-06T22:38:14.112Z,94.03
2022-10-06T22:41:01.643Z,94.58
2022-10-06T22:43:49.203Z,93.16
2022-10-06T22:46:36.814Z,93.78
2022-10-06T22:49:24.501Z,94.33
2022-10-06T22:52:14.039Z,92.13
2022-10-06T22:55:01.670Z,93.71
2022-10-06T22:57:51.186Z,93.63
2022-10-06T23:00:38.783Z,93.30
2022-10-06T23:03:26.450Z,97.37
2022-10-06T23:06:14.007Z,95.71
2022-10-06T23:09:01.559Z,92.39
2022-10-06T23:11:49.077Z,93.36
2022-10-06T23:14:36.625Z,94.43
2022-10-06T23:17:24.180Z,95.56
2022-10-06T23:20:11.713Z,94.68
2022-10-06T23:22:59.260Z,95.22
2022-10-06T23:25:46.823Z,94.54
2022-10-06T23:28:34.445Z,95.00
2022-10-06T23:31:22.113Z,94.16
2022-10-06T23:34:09.710Z,93.29
2022-10-06T23:36:57.231Z,92.58
2022-10-06T23:39:44.770Z,94.25
2022-10-06T23:42:32.295Z,92.49
2022-10-06T23:45:19.851Z,91.95
2022-10-06T23:48:07.380Z,92.57
2022-10-06T23:50:54.927Z,89.97
2022-10-06T23:53:42.454Z,86.44
2022-10-06T23:56:29.986Z,85.63
2022-10-06T23:59:17.510Z,84.25
